LYTV Airport Information

Runway Information
Runway 14 Length 8208 ft width 148 ft
Elevation 7 ft Threshold ft Heading 139
Runway 32 Length 8208 ft Width 148 ft
Elevation 16 ft Threshold ft Heading 319
Airport Frequencies
Type ARR Name APP Frequency 118 MHZ
Type TWR Name TWR Frequency 118 MHZ
Airport Navaids
Type NDB Name Tivat Frequency 345 KHZ
Airport Weather Information & NOTAM
ADDS - METARS form results

(1807 UTC 03 July 2022)
Data provider http://aviationweather.gov/metar/data/
 
METAR text: LYTV 031800Z VRB02KT CAVOK 29/21 Q1013 NOSIG
Conditions at: LYTV (TIVAT , ME) observed 1800 UTC 03 July 2022
Temperature: 29.0°C (84°F)
Dewpoint: 21.0°C (70°F) [RH = 62%]
Pressure (altimeter): 29.91 inches Hg (1013.0 mb)
Winds: variable direction winds at 2 MPH (2 knots; 1.0 m/s)
Visibility: 6 or more miles (10+ km)
Ceiling: ceiling and visibility are OK
Clouds: unknown
Weather: no significant weather observed at this time

METAR text: LYTV 031730Z 16001KT CAVOK 31/19 Q1013 NOSIG
Conditions at: LYTV (TIVAT , ME) observed 1730 UTC 03 July 2022
Temperature: 31.0°C (88°F)
Dewpoint: 19.0°C (66°F) [RH = 49%]
Pressure (altimeter): 29.91 inches Hg (1013.0 mb)
Winds: from the SSE (160 degrees) at 1 MPH (1 knots; 0.5 m/s)
Visibility: 6 or more miles (10+ km)
Ceiling: ceiling and visibility are OK
Clouds: unknown
Weather: no significant weather observed at this time

Forecast for: LYTV (TIVAT , ME)
Text: TAF LYTV 031700Z 0318/0418 VRB02KT CAVOK TX35/0413Z TN18/0403Z
Forecast period: 1800 UTC 03 July 2022 to 1800 UTC 04 July 2022
Forecast type: FROM: standard forecast or significant change
Winds: variable direction winds at 2 MPH (2 knots; 1.0 m/s)
Visibility: 6 or more miles (10+ km)
Ceiling: unknown
Clouds: missing
Weather: no significant weather forecast for this period
Text: PROB30
Forecast period: 1000 to 1700 UTC 04 July 2022
Forecast type: TEMPORARY: The following changes expected for less than half the time period
Visibility: missing
Ceiling: at least 12,000 feet AGL
Clouds: few clouds at 3000 feet AGL
scattered clouds at 4000 feet AGL
Weather: TS  (thunderstorm)